sensor_id;sensor_type;location;lat;lon;timestamp;pressure;altitude;pressure_sealevel;temperature;humidity
23166;BME280;11751;42.700;24.170;2023-04-25T00:01:58;93252.34;;;11.33;nan
23166;BME280;11751;42.700;24.170;2023-04-25T00:04:27;93244.84;;;11.36;nan
23166;BME280;11751;42.700;24.170;2023-04-25T00:06:54;93248.97;;;11.35;nan
23166;BME280;11751;42.700;24.170;2023-04-25T00:09:21;93245.16;;;11.40;nan
23166;BME280;11751;42.700;24.170;2023-04-25T00:11:46;93246.31;;;11.37;nan
23166;BME280;11751;42.700;24.170;2023-04-25T00:14:12;93239.97;;;11.36;nan
23166;BME280;11751;42.700;24.170;2023-04-25T00:16:37;93224.59;;;11.28;nan
23166;BME280;11751;42.700;24.170;2023-04-25T00:19:02;93235.22;;;11.29;nan
23166;BME280;11751;42.700;24.170;2023-04-25T00:21:28;93228.88;;;11.29;nan
23166;BME280;11751;42.700;24.170;2023-04-25T00:23:54;93245.09;;;11.30;nan
23166;BME280;11751;42.700;24.170;2023-04-25T00:26:20;93242.63;;;11.34;nan
23166;BME280;11751;42.700;24.170;2023-04-25T00:28:48;93244.69;;;11.34;nan
23166;BME280;11751;42.700;24.170;2023-04-25T00:31:14;93239.06;;;11.34;nan
23166;BME280;11751;42.700;24.170;2023-04-25T00:33:39;93243.69;;;11.39;nan
23166;BME280;11751;42.700;24.170;2023-04-25T00:36:05;93238.50;;;11.35;nan
23166;BME280;11751;42.700;24.170;2023-04-25T00:38:31;93234.63;;;11.31;nan
23166;BME280;11751;42.700;24.170;2023-04-25T00:40:56;93236.81;;;11.23;nan
23166;BME280;11751;42.700;24.170;2023-04-25T00:43:25;93232.91;;;11.35;nan
23166;BME280;11751;42.700;24.170;2023-04-25T00:45:50;93224.97;;;11.15;nan
23166;BME280;11751;42.700;24.170;2023-04-25T00:48:17;93233.38;;;11.15;nan
23166;BME280;11751;42.700;24.170;2023-04-25T00:50:53;93233.44;;;10.98;nan
23166;BME280;11751;42.700;24.170;2023-04-25T00:53:22;93224.53;;;10.92;nan
23166;BME280;11751;42.700;24.170;2023-04-25T00:55:49;93221.19;;;11.03;nan
23166;BME280;11751;42.700;24.170;2023-04-25T00:58:16;93215.75;;;11.05;nan
23166;BME280;11751;42.700;24.170;2023-04-25T01:00:42;93221.69;;;11.09;nan
23166;BME280;11751;42.700;24.170;2023-04-25T01:03:09;93213.59;;;11.13;nan
23166;BME280;11751;42.700;24.170;2023-04-25T01:05:35;93226.91;;;11.22;nan
23166;BME280;11751;42.700;24.170;2023-04-25T01:08:00;93217.47;;;10.91;nan
23166;BME280;11751;42.700;24.170;2023-04-25T01:10:26;93225.28;;;10.93;nan
23166;BME280;11751;42.700;24.170;2023-04-25T01:12:52;93218.09;;;10.99;nan
23166;BME280;11751;42.700;24.170;2023-04-25T01:15:17;93223.06;;;10.91;nan
23166;BME280;11751;42.700;24.170;2023-04-25T01:17:43;93225.72;;;10.72;nan
23166;BME280;11751;42.700;24.170;2023-04-25T01:20:09;93222.09;;;10.79;nan
23166;BME280;11751;42.700;24.170;2023-04-25T01:22:36;93211.88;;;10.91;nan
23166;BME280;11751;42.700;24.170;2023-04-25T01:25:01;93213.03;;;10.88;nan
23166;BME280;11751;42.700;24.170;2023-04-25T01:27:27;93215.00;;;10.78;nan
23166;BME280;11751;42.700;24.170;2023-04-25T01:29:54;93216.81;;;10.83;nan
23166;BME280;11751;42.700;24.170;2023-04-25T01:32:22;93211.53;;;10.87;nan
23166;BME280;11751;42.700;24.170;2023-04-25T01:34:47;93207.25;;;10.86;nan
23166;BME280;11751;42.700;24.170;2023-04-25T01:37:13;93210.16;;;11.05;nan
23166;BME280;11751;42.700;24.170;2023-04-25T01:39:38;93199.13;;;11.07;nan
23166;BME280;11751;42.700;24.170;2023-04-25T01:42:04;93202.09;;;11.09;nan
23166;BME280;11751;42.700;24.170;2023-04-25T01:44:30;93202.91;;;11.02;nan
23166;BME280;11751;42.700;24.170;2023-04-25T01:46:55;93194.22;;;10.98;nan
23166;BME280;11751;42.700;24.170;2023-04-25T01:49:20;93199.47;;;10.94;nan
23166;BME280;11751;42.700;24.170;2023-04-25T01:51:46;93202.78;;;11.00;nan
23166;BME280;11751;42.700;24.170;2023-04-25T01:54:12;93196.31;;;11.07;nan
23166;BME280;11751;42.700;24.170;2023-04-25T01:56:38;93196.66;;;11.11;nan
23166;BME280;11751;42.700;24.170;2023-04-25T01:59:05;93190.19;;;11.18;nan
23166;BME280;11751;42.700;24.170;2023-04-25T02:01:30;93181.50;;;11.23;nan
23166;BME280;11751;42.700;24.170;2023-04-25T02:03:56;93183.13;;;11.26;nan
23166;BME280;11751;42.700;24.170;2023-04-25T02:06:21;93173.28;;;11.25;nan
23166;BME280;11751;42.700;24.170;2023-04-25T02:08:47;93169.44;;;11.30;nan
23166;BME280;11751;42.700;24.170;2023-04-25T02:11:12;93163.72;;;11.38;nan
23166;BME280;11751;42.700;24.170;2023-04-25T02:13:38;93158.97;;;11.31;nan
23166;BME280;11751;42.700;24.170;2023-04-25T02:16:03;93158.66;;;11.27;nan
23166;BME280;11751;42.700;24.170;2023-04-25T02:18:29;93149.78;;;11.21;nan
23166;BME280;11751;42.700;24.170;2023-04-25T02:20:54;93157.63;;;11.22;nan
23166;BME280;11751;42.700;24.170;2023-04-25T02:23:20;93151.41;;;11.24;nan
23166;BME280;11751;42.700;24.170;2023-04-25T02:25:45;93160.06;;;11.09;nan
23166;BME280;11751;42.700;24.170;2023-04-25T02:28:11;93155.84;;;10.91;nan
23166;BME280;11751;42.700;24.170;2023-04-25T02:30:37;93152.94;;;10.72;nan
23166;BME280;11751;42.700;24.170;2023-04-25T02:33:02;93149.50;;;10.91;nan
23166;BME280;11751;42.700;24.170;2023-04-25T02:35:28;93133.44;;;10.91;nan
23166;BME280;11751;42.700;24.170;2023-04-25T02:37:53;93144.50;;;10.89;nan
23166;BME280;11751;42.700;24.170;2023-04-25T02:40:18;93130.50;;;10.89;nan
23166;BME280;11751;42.700;24.170;2023-04-25T02:42:44;93127.53;;;10.87;nan
23166;BME280;11751;42.700;24.170;2023-04-25T02:45:11;93137.88;;;10.94;nan
23166;BME280;11751;42.700;24.170;2023-04-25T02:47:36;93141.56;;;10.97;nan
23166;BME280;11751;42.700;24.170;2023-04-25T02:50:02;93131.09;;;10.97;nan
23166;BME280;11751;42.700;24.170;2023-04-25T02:52:28;93132.50;;;10.79;nan
23166;BME280;11751;42.700;24.170;2023-04-25T02:54:53;93127.63;;;10.80;nan
23166;BME280;11751;42.700;24.170;2023-04-25T02:57:18;93126.78;;;10.87;nan
23166;BME280;11751;42.700;24.170;2023-04-25T02:59:44;93125.09;;;10.74;nan
23166;BME280;11751;42.700;24.170;2023-04-25T03:02:09;93124.09;;;10.53;nan
23166;BME280;11751;42.700;24.170;2023-04-25T03:04:35;93122.28;;;10.48;nan
23166;BME280;11751;42.700;24.170;2023-04-25T03:07:00;93126.63;;;10.58;nan
23166;BME280;11751;42.700;24.170;2023-04-25T03:09:26;93126.69;;;10.41;nan
23166;BME280;11751;42.700;24.170;2023-04-25T03:11:52;93132.44;;;10.26;nan
23166;BME280;11751;42.700;24.170;2023-04-25T03:14:17;93131.78;;;10.35;nan
23166;BME280;11751;42.700;24.170;2023-04-25T03:16:42;93127.81;;;10.38;nan
23166;BME280;11751;42.700;24.170;2023-04-25T03:19:08;93128.16;;;10.42;nan
23166;BME280;11751;42.700;24.170;2023-04-25T03:21:34;93129.94;;;10.47;nan
23166;BME280;11751;42.700;24.170;2023-04-25T03:24:02;93123.28;;;10.43;nan
23166;BME280;11751;42.700;24.170;2023-04-25T03:26:28;93119.59;;;10.23;nan
23166;BME280;11751;42.700;24.170;2023-04-25T03:28:53;93126.72;;;10.08;nan
23166;BME280;11751;42.700;24.170;2023-04-25T03:31:19;93120.69;;;10.11;nan
23166;BME280;11751;42.700;24.170;2023-04-25T03:33:45;93118.81;;;10.14;nan
23166;BME280;11751;42.700;24.170;2023-04-25T03:36:10;93104.75;;;10.04;nan
23166;BME280;11751;42.700;24.170;2023-04-25T03:38:35;93112.56;;;10.23;nan
23166;BME280;11751;42.700;24.170;2023-04-25T03:41:01;93119.78;;;10.25;nan
23166;BME280;11751;42.700;24.170;2023-04-25T03:43:27;93126.00;;;10.33;nan
23166;BME280;11751;42.700;24.170;2023-04-25T03:45:52;93116.25;;;10.25;nan
23166;BME280;11751;42.700;24.170;2023-04-25T03:48:18;93117.97;;;10.04;nan
23166;BME280;11751;42.700;24.170;2023-04-25T03:50:44;93119.97;;;10.11;nan
23166;BME280;11751;42.700;24.170;2023-04-25T03:53:10;93127.19;;;10.14;nan
23166;BME280;11751;42.700;24.170;2023-04-25T03:55:35;93120.47;;;10.00;nan
23166;BME280;11751;42.700;24.170;2023-04-25T03:58:00;93114.38;;;10.11;nan
23166;BME280;11751;42.700;24.170;2023-04-25T04:00:26;93123.75;;;10.23;nan
23166;BME280;11751;42.700;24.170;2023-04-25T04:02:51;93129.81;;;10.28;nan
23166;BME280;11751;42.700;24.170;2023-04-25T04:05:17;93132.66;;;10.38;nan
23166;BME280;11751;42.700;24.170;2023-04-25T04:07:42;93130.03;;;10.40;nan
23166;BME280;11751;42.700;24.170;2023-04-25T04:10:11;93125.25;;;10.50;nan
23166;BME280;11751;42.700;24.170;2023-04-25T04:12:37;93133.53;;;10.57;nan
23166;BME280;11751;42.700;24.170;2023-04-25T04:15:04;93130.59;;;10.55;nan
23166;BME280;11751;42.700;24.170;2023-04-25T04:17:30;93121.22;;;10.43;nan
23166;BME280;11751;42.700;24.170;2023-04-25T04:19:55;93130.38;;;10.44;nan
23166;BME280;11751;42.700;24.170;2023-04-25T04:22:22;93143.25;;;10.56;nan
23166;BME280;11751;42.700;24.170;2023-04-25T04:24:47;93131.81;;;10.62;nan
23166;BME280;11751;42.700;24.170;2023-04-25T04:27:15;93124.53;;;10.76;nan
23166;BME280;11751;42.700;24.170;2023-04-25T04:29:42;93125.41;;;10.78;nan
23166;BME280;11751;42.700;24.170;2023-04-25T04:32:08;93120.44;;;10.86;nan
23166;BME280;11751;42.700;24.170;2023-04-25T04:34:34;93121.94;;;10.87;nan
23166;BME280;11751;42.700;24.170;2023-04-25T04:37:00;93131.00;;;10.78;nan
23166;BME280;11751;42.700;24.170;2023-04-25T04:39:25;93124.78;;;10.70;nan
23166;BME280;11751;42.700;24.170;2023-04-25T04:41:51;93131.53;;;10.67;nan
23166;BME280;11751;42.700;24.170;2023-04-25T04:44:16;93128.81;;;10.77;nan
23166;BME280;11751;42.700;24.170;2023-04-25T04:46:42;93140.22;;;10.88;nan
23166;BME280;11751;42.700;24.170;2023-04-25T04:49:12;93143.78;;;10.98;nan
23166;BME280;11751;42.700;24.170;2023-04-25T04:51:39;93135.69;;;11.02;nan
23166;BME280;11751;42.700;24.170;2023-04-25T04:54:05;93136.34;;;11.10;nan
23166;BME280;11751;42.700;24.170;2023-04-25T04:56:31;93138.28;;;11.17;nan
23166;BME280;11751;42.700;24.170;2023-04-25T04:58:57;93140.06;;;11.22;nan
23166;BME280;11751;42.700;24.170;2023-04-25T05:01:23;93139.22;;;11.29;nan
23166;BME280;11751;42.700;24.170;2023-04-25T05:03:48;93131.53;;;11.29;nan
23166;BME280;11751;42.700;24.170;2023-04-25T05:06:14;93137.72;;;11.28;nan
23166;BME280;11751;42.700;24.170;2023-04-25T05:08:40;93143.94;;;11.36;nan
23166;BME280;11751;42.700;24.170;2023-04-25T05:11:05;93139.50;;;11.33;nan
23166;BME280;11751;42.700;24.170;2023-04-25T05:13:31;93136.88;;;11.35;nan
23166;BME280;11751;42.700;24.170;2023-04-25T05:15:56;93125.00;;;11.53;nan
23166;BME280;11751;42.700;24.170;2023-04-25T05:18:22;93130.97;;;11.95;nan
23166;BME280;11751;42.700;24.170;2023-04-25T05:20:47;93139.84;;;12.10;nan
23166;BME280;11751;42.700;24.170;2023-04-25T05:23:13;93144.28;;;12.32;nan
23166;BME280;11751;42.700;24.170;2023-04-25T05:25:38;93135.25;;;12.43;nan
23166;BME280;11751;42.700;24.170;2023-04-25T05:28:03;93136.91;;;12.46;nan
23166;BME280;11751;42.700;24.170;2023-04-25T05:30:30;93129.66;;;12.43;nan
23166;BME280;11751;42.700;24.170;2023-04-25T05:32:55;93129.19;;;12.47;nan
23166;BME280;11751;42.700;24.170;2023-04-25T05:35:20;93131.69;;;12.52;nan
23166;BME280;11751;42.700;24.170;2023-04-25T05:37:46;93130.81;;;12.59;nan
23166;BME280;11751;42.700;24.170;2023-04-25T05:40:11;93125.81;;;12.29;nan
23166;BME280;11751;42.700;24.170;2023-04-25T05:42:37;93121.50;;;12.57;nan
23166;BME280;11751;42.700;24.170;2023-04-25T05:45:02;93130.63;;;12.95;nan
23166;BME280;11751;42.700;24.170;2023-04-25T05:47:28;93130.41;;;13.21;nan
23166;BME280;11751;42.700;24.170;2023-04-25T05:49:53;93129.94;;;13.25;nan
23166;BME280;11751;42.700;24.170;2023-04-25T05:52:19;93124.72;;;13.61;nan
23166;BME280;11751;42.700;24.170;2023-04-25T05:54:44;93103.91;;;13.75;nan
23166;BME280;11751;42.700;24.170;2023-04-25T05:57:21;93133.00;;;13.89;nan
23166;BME280;11751;42.700;24.170;2023-04-25T05:59:47;93126.31;;;13.73;nan
23166;BME280;11751;42.700;24.170;2023-04-25T06:02:13;93130.34;;;13.91;nan
23166;BME280;11751;42.700;24.170;2023-04-25T06:04:38;93125.25;;;13.99;nan
23166;BME280;11751;42.700;24.170;2023-04-25T06:07:03;93118.81;;;14.29;nan
23166;BME280;11751;42.700;24.170;2023-04-25T06:09:29;93127.13;;;14.48;nan
23166;BME280;11751;42.700;24.170;2023-04-25T06:11:54;93123.22;;;14.53;nan
23166;BME280;11751;42.700;24.170;2023-04-25T06:14:20;93118.75;;;14.71;nan
23166;BME280;11751;42.700;24.170;2023-04-25T06:16:45;93116.97;;;14.87;nan
23166;BME280;11751;42.700;24.170;2023-04-25T06:19:11;93113.81;;;14.92;nan
23166;BME280;11751;42.700;24.170;2023-04-25T06:21:36;93109.66;;;15.05;nan
23166;BME280;11751;42.700;24.170;2023-04-25T06:24:02;93118.63;;;15.13;nan
23166;BME280;11751;42.700;24.170;2023-04-25T06:26:27;93122.72;;;15.33;nan
23166;BME280;11751;42.700;24.170;2023-04-25T06:28:52;93121.34;;;15.22;nan
23166;BME280;11751;42.700;24.170;2023-04-25T06:31:18;93130.88;;;15.06;nan
23166;BME280;11751;42.700;24.170;2023-04-25T06:33:43;93125.72;;;15.14;nan
23166;BME280;11751;42.700;24.170;2023-04-25T06:36:09;93120.16;;;15.25;nan
23166;BME280;11751;42.700;24.170;2023-04-25T06:38:34;93120.16;;;15.25;nan
23166;BME280;11751;42.700;24.170;2023-04-25T06:41:00;93121.38;;;15.34;nan
23166;BME280;11751;42.700;24.170;2023-04-25T06:43:25;93125.31;;;15.29;nan
23166;BME280;11751;42.700;24.170;2023-04-25T06:45:51;93121.13;;;15.30;nan
23166;BME280;11751;42.700;24.170;2023-04-25T06:48:16;93111.75;;;15.04;nan
23166;BME280;11751;42.700;24.170;2023-04-25T06:50:42;93122.16;;;15.02;nan
23166;BME280;11751;42.700;24.170;2023-04-25T06:53:07;93127.06;;;15.01;nan
23166;BME280;11751;42.700;24.170;2023-04-25T06:55:33;93118.81;;;14.94;nan
23166;BME280;11751;42.700;24.170;2023-04-25T06:58:00;93122.97;;;14.81;nan
23166;BME280;11751;42.700;24.170;2023-04-25T07:00:25;93112.94;;;14.90;nan
23166;BME280;11751;42.700;24.170;2023-04-25T07:02:50;93115.69;;;14.67;nan
23166;BME280;11751;42.700;24.170;2023-04-25T07:05:16;93114.06;;;14.64;nan
23166;BME280;11751;42.700;24.170;2023-04-25T07:07:41;93114.06;;;14.64;nan
23166;BME280;11751;42.700;24.170;2023-04-25T07:10:07;93120.47;;;14.64;nan
23166;BME280;11751;42.700;24.170;2023-04-25T07:12:32;93116.31;;;14.77;nan
23166;BME280;11751;42.700;24.170;2023-04-25T07:14:58;93128.09;;;14.85;nan
23166;BME280;11751;42.700;24.170;2023-04-25T07:17:23;93134.75;;;14.89;nan
23166;BME280;11751;42.700;24.170;2023-04-25T07:19:49;93125.19;;;14.83;nan
23166;BME280;11751;42.700;24.170;2023-04-25T07:22:14;93123.16;;;14.74;nan
23166;BME280;11751;42.700;24.170;2023-04-25T07:24:40;93129.78;;;14.78;nan
23166;BME280;11751;42.700;24.170;2023-04-25T07:27:06;93130.28;;;14.75;nan
23166;BME280;11751;42.700;24.170;2023-04-25T07:29:31;93141.31;;;14.71;nan
23166;BME280;11751;42.700;24.170;2023-04-25T07:31:57;93137.91;;;14.84;nan
23166;BME280;11751;42.700;24.170;2023-04-25T07:34:22;93132.28;;;14.84;nan
23166;BME280;11751;42.700;24.170;2023-04-25T07:36:48;93116.81;;;14.73;nan
23166;BME280;11751;42.700;24.170;2023-04-25T07:39:13;93134.97;;;14.82;nan
23166;BME280;11751;42.700;24.170;2023-04-25T07:41:40;93135.72;;;14.94;nan
23166;BME280;11751;42.700;24.170;2023-04-25T07:44:05;93130.94;;;14.85;nan
23166;BME280;11751;42.700;24.170;2023-04-25T07:46:31;93131.09;;;14.98;nan
23166;BME280;11751;42.700;24.170;2023-04-25T07:48:57;93137.28;;;15.18;nan
23166;BME280;11751;42.700;24.170;2023-04-25T07:51:22;93136.25;;;15.02;nan
23166;BME280;11751;42.700;24.170;2023-04-25T07:53:47;93138.75;;;15.19;nan
23166;BME280;11751;42.700;24.170;2023-04-25T07:56:13;93132.78;;;15.36;nan
23166;BME280;11751;42.700;24.170;2023-04-25T07:58:38;93141.50;;;15.51;nan
23166;BME280;11751;42.700;24.170;2023-04-25T08:01:04;93137.84;;;15.48;nan
23166;BME280;11751;42.700;24.170;2023-04-25T08:03:29;93142.50;;;15.55;nan
23166;BME280;11751;42.700;24.170;2023-04-25T08:05:55;93134.16;;;15.57;nan
23166;BME280;11751;42.700;24.170;2023-04-25T08:08:20;93134.53;;;15.63;nan
23166;BME280;11751;42.700;24.170;2023-04-25T08:10:46;93140.03;;;15.84;nan
23166;BME280;11751;42.700;24.170;2023-04-25T08:13:13;93144.34;;;15.62;nan
23166;BME280;11751;42.700;24.170;2023-04-25T08:15:38;93137.59;;;15.67;nan
23166;BME280;11751;42.700;24.170;2023-04-25T08:18:04;93133.91;;;15.76;nan
23166;BME280;11751;42.700;24.170;2023-04-25T08:20:29;93138.06;;;15.87;nan
23166;BME280;11751;42.700;24.170;2023-04-25T08:22:55;93132.91;;;16.06;nan
23166;BME280;11751;42.700;24.170;2023-04-25T08:25:21;93135.31;;;16.23;nan
23166;BME280;11751;42.700;24.170;2023-04-25T08:27:46;93130.38;;;16.46;nan
23166;BME280;11751;42.700;24.170;2023-04-25T08:30:12;93131.59;;;16.55;nan
23166;BME280;11751;42.700;24.170;2023-04-25T08:32:37;93131.41;;;16.76;nan
23166;BME280;11751;42.700;24.170;2023-04-25T08:35:04;93136.50;;;16.91;nan
23166;BME280;11751;42.700;24.170;2023-04-25T08:37:30;93133.38;;;16.98;nan
23166;BME280;11751;42.700;24.170;2023-04-25T08:39:55;93124.16;;;17.22;nan
23166;BME280;11751;42.700;24.170;2023-04-25T08:42:21;93125.97;;;17.05;nan
23166;BME280;11751;42.700;24.170;2023-04-25T08:44:48;93129.81;;;16.73;nan
23166;BME280;11751;42.700;24.170;2023-04-25T08:47:14;93131.28;;;17.23;nan
23166;BME280;11751;42.700;24.170;2023-04-25T08:49:39;93120.06;;;17.50;nan
23166;BME280;11751;42.700;24.170;2023-04-25T08:52:09;93125.13;;;17.65;nan
23166;BME280;11751;42.700;24.170;2023-04-25T08:54:36;93123.38;;;17.72;nan
23166;BME280;11751;42.700;24.170;2023-04-25T08:57:02;93122.50;;;17.83;nan
23166;BME280;11751;42.700;24.170;2023-04-25T08:59:30;93113.00;;;18.03;nan
23166;BME280;11751;42.700;24.170;2023-04-25T09:01:55;93121.69;;;17.80;nan
23166;BME280;11751;42.700;24.170;2023-04-25T09:04:20;93112.56;;;17.95;nan
23166;BME280;11751;42.700;24.170;2023-04-25T09:06:47;93110.88;;;17.90;nan
23166;BME280;11751;42.700;24.170;2023-04-25T09:09:13;93108.47;;;17.98;nan
23166;BME280;11751;42.700;24.170;2023-04-25T09:11:39;93101.78;;;18.05;nan
23166;BME280;11751;42.700;24.170;2023-04-25T09:14:12;93105.81;;;18.56;nan
23166;BME280;11751;42.700;24.170;2023-04-25T09:16:57;93103.47;;;18.66;nan
23166;BME280;11751;42.700;24.170;2023-04-25T09:19:30;93096.00;;;18.72;nan
23166;BME280;11751;42.700;24.170;2023-04-25T09:21:57;93099.69;;;18.75;nan
23166;BME280;11751;42.700;24.170;2023-04-25T09:24:36;93102.13;;;18.95;nan
23166;BME280;11751;42.700;24.170;2023-04-25T09:27:07;93102.06;;;19.22;nan
23166;BME280;11751;42.700;24.170;2023-04-25T09:29:37;93096.78;;;19.30;nan
23166;BME280;11751;42.700;24.170;2023-04-25T09:32:22;93103.66;;;19.56;nan
23166;BME280;11751;42.700;24.170;2023-04-25T09:34:52;93092.69;;;19.20;nan
23166;BME280;11751;42.700;24.170;2023-04-25T09:37:23;93087.25;;;19.39;nan
23166;BME280;11751;42.700;24.170;2023-04-25T09:39:53;93086.53;;;19.70;nan
23166;BME280;11751;42.700;24.170;2023-04-25T09:42:22;93092.13;;;19.83;nan
23166;BME280;11751;42.700;24.170;2023-04-25T09:44:52;93088.69;;;20.00;nan
23166;BME280;11751;42.700;24.170;2023-04-25T09:47:17;93091.66;;;19.88;nan
23166;BME280;11751;42.700;24.170;2023-04-25T09:49:44;93097.28;;;20.02;nan
23166;BME280;11751;42.700;24.170;2023-04-25T09:52:14;93089.81;;;19.95;nan
23166;BME280;11751;42.700;24.170;2023-04-25T09:54:40;93079.91;;;20.27;nan
23166;BME280;11751;42.700;24.170;2023-04-25T09:59:39;93086.19;;;20.08;nan
23166;BME280;11751;42.700;24.170;2023-04-25T10:02:08;93073.63;;;19.97;nan
23166;BME280;11751;42.700;24.170;2023-04-25T10:04:35;93070.97;;;19.86;nan
23166;BME280;11751;42.700;24.170;2023-04-25T10:07:03;93068.06;;;20.32;nan
23166;BME280;11751;42.700;24.170;2023-04-25T10:09:36;93065.47;;;19.90;nan
23166;BME280;11751;42.700;24.170;2023-04-25T10:12:03;93066.38;;;19.79;nan
23166;BME280;11751;42.700;24.170;2023-04-25T10:14:31;93068.00;;;19.22;nan
23166;BME280;11751;42.700;24.170;2023-04-25T10:16:58;93059.19;;;18.59;nan
23166;BME280;11751;42.700;24.170;2023-04-25T10:19:24;93046.38;;;18.58;nan
23166;BME280;11751;42.700;24.170;2023-04-25T10:22:11;93064.09;;;18.72;nan
23166;BME280;11751;42.700;24.170;2023-04-25T10:24:39;93048.66;;;18.32;nan
23166;BME280;11751;42.700;24.170;2023-04-25T10:27:05;93046.47;;;18.04;nan
23166;BME280;11751;42.700;24.170;2023-04-25T10:29:31;93039.13;;;17.99;nan
23166;BME280;11751;42.700;24.170;2023-04-25T10:31:56;93048.03;;;17.94;nan
23166;BME280;11751;42.700;24.170;2023-04-25T10:34:38;93053.19;;;17.70;nan
23166;BME280;11751;42.700;24.170;2023-04-25T10:37:05;93042.28;;;17.51;nan
23166;BME280;11751;42.700;24.170;2023-04-25T10:39:33;93046.47;;;17.50;nan
23166;BME280;11751;42.700;24.170;2023-04-25T10:42:01;93040.69;;;17.48;nan
23166;BME280;11751;42.700;24.170;2023-04-25T10:44:31;93036.84;;;17.42;nan
23166;BME280;11751;42.700;24.170;2023-04-25T10:46:58;93037.16;;;17.48;nan
23166;BME280;11751;42.700;24.170;2023-04-25T10:49:34;93037.25;;;17.63;nan
23166;BME280;11751;42.700;24.170;2023-04-25T10:52:15;93046.88;;;17.58;nan
23166;BME280;11751;42.700;24.170;2023-04-25T10:54:48;93037.38;;;17.65;nan
23166;BME280;11751;42.700;24.170;2023-04-25T10:57:37;93038.50;;;17.87;nan
23166;BME280;11751;42.700;24.170;2023-04-25T11:00:16;93027.97;;;18.30;nan
23166;BME280;11751;42.700;24.170;2023-04-25T11:02:47;93025.75;;;18.42;nan
23166;BME280;11751;42.700;24.170;2023-04-25T11:05:31;93012.75;;;18.66;nan
23166;BME280;11751;42.700;24.170;2023-04-25T11:07:57;93017.53;;;18.77;nan
23166;BME280;11751;42.700;24.170;2023-04-25T11:10:27;93012.16;;;19.11;nan
23166;BME280;11751;42.700;24.170;2023-04-25T11:12:52;93005.75;;;19.42;nan
23166;BME280;11751;42.700;24.170;2023-04-25T11:15:18;92993.38;;;19.51;nan
23166;BME280;11751;42.700;24.170;2023-04-25T11:17:43;92999.34;;;19.57;nan
23166;BME280;11751;42.700;24.170;2023-04-25T11:20:12;92994.81;;;19.67;nan
23166;BME280;11751;42.700;24.170;2023-04-25T11:22:39;92995.13;;;19.42;nan
23166;BME280;11751;42.700;24.170;2023-04-25T11:25:09;92998.56;;;19.10;nan
23166;BME280;11751;42.700;24.170;2023-04-25T11:27:38;92999.50;;;19.14;nan
23166;BME280;11751;42.700;24.170;2023-04-25T11:30:14;93006.19;;;19.36;nan
23166;BME280;11751;42.700;24.170;2023-04-25T11:32:41;93009.69;;;19.19;nan
23166;BME280;11751;42.700;24.170;2023-04-25T11:35:07;93006.06;;;19.03;nan
23166;BME280;11751;42.700;24.170;2023-04-25T11:37:33;93004.59;;;18.87;nan
23166;BME280;11751;42.700;24.170;2023-04-25T11:40:00;92996.63;;;18.55;nan
23166;BME280;11751;42.700;24.170;2023-04-25T11:42:25;93012.69;;;18.50;nan
23166;BME280;11751;42.700;24.170;2023-04-25T11:44:51;93007.41;;;18.16;nan
23166;BME280;11751;42.700;24.170;2023-04-25T11:47:16;93004.09;;;18.06;nan
23166;BME280;11751;42.700;24.170;2023-04-25T11:49:42;93019.53;;;17.76;nan
23166;BME280;11751;42.700;24.170;2023-04-25T11:52:07;93025.28;;;17.51;nan
23166;BME280;11751;42.700;24.170;2023-04-25T11:54:36;93027.31;;;17.24;nan
23166;BME280;11751;42.700;24.170;2023-04-25T11:57:01;93026.09;;;17.27;nan
23166;BME280;11751;42.700;24.170;2023-04-25T11:59:28;93016.91;;;17.40;nan
23166;BME280;11751;42.700;24.170;2023-04-25T12:01:54;93011.06;;;17.76;nan
23166;BME280;11751;42.700;24.170;2023-04-25T12:04:23;93020.97;;;18.04;nan
23166;BME280;11751;42.700;24.170;2023-04-25T12:06:50;93004.22;;;18.37;nan
23166;BME280;11751;42.700;24.170;2023-04-25T12:09:29;92998.50;;;18.21;nan
23166;BME280;11751;42.700;24.170;2023-04-25T12:11:56;92988.56;;;18.49;nan
23166;BME280;11751;42.700;24.170;2023-04-25T12:14:25;92987.91;;;18.80;nan
23166;BME280;11751;42.700;24.170;2023-04-25T12:16:54;92982.44;;;18.84;nan
23166;BME280;11751;42.700;24.170;2023-04-25T12:19:21;92983.16;;;18.84;nan
23166;BME280;11751;42.700;24.170;2023-04-25T12:21:47;92978.91;;;18.70;nan
23166;BME280;11751;42.700;24.170;2023-04-25T12:26:53;92972.44;;;19.11;nan
23166;BME280;11751;42.700;24.170;2023-04-25T12:29:23;92964.53;;;19.25;nan
23166;BME280;11751;42.700;24.170;2023-04-25T12:31:50;92967.53;;;19.60;nan
23166;BME280;11751;42.700;24.170;2023-04-25T12:34:17;92967.19;;;19.52;nan
23166;BME280;11751;42.700;24.170;2023-04-25T12:36:43;92963.09;;;19.88;nan
23166;BME280;11751;42.700;24.170;2023-04-25T12:39:08;92964.47;;;19.87;nan
23166;BME280;11751;42.700;24.170;2023-04-25T12:41:34;92954.00;;;20.07;nan
23166;BME280;11751;42.700;24.170;2023-04-25T12:43:59;92956.75;;;20.05;nan
23166;BME280;11751;42.700;24.170;2023-04-25T12:46:25;92960.00;;;19.82;nan
23166;BME280;11751;42.700;24.170;2023-04-25T12:48:50;92962.09;;;19.97;nan
23166;BME280;11751;42.700;24.170;2023-04-25T12:51:16;92952.91;;;19.98;nan
23166;BME280;11751;42.700;24.170;2023-04-25T12:53:41;92960.69;;;19.50;nan
23166;BME280;11751;42.700;24.170;2023-04-25T12:56:07;92956.13;;;19.43;nan
23166;BME280;11751;42.700;24.170;2023-04-25T12:58:33;92948.97;;;19.42;nan
23166;BME280;11751;42.700;24.170;2023-04-25T13:00:59;92972.59;;;19.46;nan
23166;BME280;11751;42.700;24.170;2023-04-25T13:03:24;92953.38;;;19.77;nan
23166;BME280;11751;42.700;24.170;2023-04-25T13:05:50;92961.16;;;19.92;nan
23166;BME280;11751;42.700;24.170;2023-04-25T13:08:18;92927.00;;;19.75;nan
23166;BME280;11751;42.700;24.170;2023-04-25T13:10:43;92942.28;;;19.99;nan
23166;BME280;11751;42.700;24.170;2023-04-25T13:13:09;92936.25;;;19.91;nan